createdAt,value
2018-02-18T00:01:00.506Z,-0.5
2018-02-18T00:02:22.367Z,-0.4
2018-02-18T00:03:29.570Z,-0.5
2018-02-18T00:04:36.505Z,-0.6
2018-02-18T00:05:43.710Z,-0.6
2018-02-18T00:06:50.915Z,-0.6
2018-02-18T00:07:58.122Z,-0.6
2018-02-18T00:09:04.780Z,-0.7
2018-02-18T00:10:11.706Z,-0.7
2018-02-18T00:11:18.911Z,-0.7
2018-02-18T00:12:26.135Z,-0.7
2018-02-18T00:13:33.340Z,-0.8
2018-02-18T00:14:40.549Z,-0.9
2018-02-18T00:15:47.765Z,-1
2018-02-18T00:16:55.173Z,-1
2018-02-18T00:18:02.380Z,-1.1
2018-02-18T00:19:09.594Z,-1.2
2018-02-18T00:20:16.537Z,-1.2
2018-02-18T00:21:23.742Z,-1.2
2018-02-18T00:22:30.404Z,-1.2
2018-02-18T00:23:37.330Z,-1.3
2018-02-18T00:24:43.986Z,-1.3
2018-02-18T00:25:50.943Z,-1.3
2018-02-18T00:26:58.151Z,-1.3
2018-02-18T00:28:05.093Z,-1.3
2018-02-18T00:29:12.303Z,-1.3
2018-02-18T00:30:19.230Z,-1.3
2018-02-18T00:31:26.434Z,-1.3
2018-02-18T00:32:33.640Z,-1.3
2018-02-18T00:33:40.592Z,-1.3
2018-02-18T00:34:47.798Z,-1.4
2018-02-18T00:35:55.009Z,-1.4
2018-02-18T00:37:02.222Z,-1.5
2018-02-18T00:38:09.158Z,-1.5
2018-02-18T00:39:15.817Z,-1.6
2018-02-18T00:40:23.028Z,-1.6
2018-02-18T00:41:29.956Z,-1.6
2018-02-18T00:42:37.172Z,-1.6
2018-02-18T00:43:44.099Z,-1.7
2018-02-18T00:44:51.306Z,-1.7
2018-02-18T00:45:58.517Z,-1.7
2018-02-18T00:47:05.454Z,-1.7
2018-02-18T00:48:12.662Z,-1.7
2018-02-18T00:49:19.595Z,-1.7
2018-02-18T00:50:26.527Z,-1.7
2018-02-18T00:51:33.736Z,-1.7
2018-02-18T00:52:40.942Z,-1.7
2018-02-18T00:53:47.878Z,-1.6
2018-02-18T00:54:55.119Z,-1.7
2018-02-18T00:56:02.328Z,-1.6
2018-02-18T00:57:09.550Z,-1.6
2018-02-18T00:58:16.773Z,-1.6
2018-02-18T00:59:23.729Z,-1.5
2018-02-18T01:00:30.939Z,-1.6
2018-02-18T01:01:37.936Z,-1.6
2018-02-18T01:02:45.142Z,-1.6
2018-02-18T01:03:52.073Z,-1.7
2018-02-18T01:04:58.730Z,-1.7
2018-02-18T01:06:05.936Z,-1.7
2018-02-18T01:07:13.144Z,-1.8
2018-02-18T01:08:20.349Z,-1.7
2018-02-18T01:09:26.732Z,-1.5
2018-02-18T01:10:33.941Z,-1.5
2018-02-18T01:11:40.868Z,-1.5
2018-02-18T01:12:48.076Z,-1.5
2018-02-18T01:13:55.281Z,-1.5
2018-02-18T01:15:03.449Z,-1.4
2018-02-18T01:16:10.668Z,-1.3
2018-02-18T01:17:17.875Z,-1.2
2018-02-18T01:18:24.822Z,-1.1
2018-02-18T01:19:32.024Z,-1.2
2018-02-18T01:20:38.953Z,-1.2
2018-02-18T01:21:45.893Z,-1.2
2018-02-18T01:22:52.854Z,-1.1
2018-02-18T01:23:59.785Z,-1.2
2018-02-18T01:25:06.721Z,-1.1
2018-02-18T01:26:13.934Z,-1.1
2018-02-18T01:27:20.586Z,-0.9
2018-02-18T01:28:27.520Z,-0.9
2018-02-18T01:29:34.448Z,-0.8
2018-02-18T01:30:41.381Z,-0.9
2018-02-18T01:31:48.588Z,-0.9
2018-02-18T01:32:55.793Z,-0.9
2018-02-18T01:34:03.955Z,-0.9
2018-02-18T01:35:11.175Z,-0.9
2018-02-18T01:36:18.411Z,-0.9
2018-02-18T01:37:25.616Z,-1
2018-02-18T01:38:32.827Z,-0.9
2018-02-18T01:39:39.753Z,-0.8
2018-02-18T01:40:46.958Z,-0.9
2018-02-18T01:41:53.885Z,-0.9
2018-02-18T01:43:01.104Z,-1
2018-02-18T01:44:08.315Z,-1
2018-02-18T01:45:15.247Z,-1
2018-02-18T01:46:22.455Z,-1
2018-02-18T01:47:29.663Z,-1
2018-02-18T01:48:36.867Z,-1.1
2018-02-18T01:49:43.522Z,-1.1
2018-02-18T01:50:50.731Z,-1.1
2018-02-18T01:51:57.948Z,-1.2
2018-02-18T01:53:05.154Z,-1.1
2018-02-18T01:54:12.879Z,-1.2
2018-02-18T01:55:19.812Z,-1.2
2018-02-18T01:56:27.030Z,-1.2
2018-02-18T01:57:34.229Z,-1.1
2018-02-18T01:58:41.440Z,-1.1
2018-02-18T01:59:48.645Z,-1.1
2018-02-18T02:00:55.618Z,-1.2
2018-02-18T02:02:02.814Z,-1.3
2018-02-18T02:03:09.748Z,-1.4
2018-02-18T02:04:16.411Z,-1.4
2018-02-18T02:05:23.614Z,-1.5
2018-02-18T02:06:30.543Z,-1.5
2018-02-18T02:07:37.747Z,-1.6
2018-02-18T02:08:44.953Z,-1.6
2018-02-18T02:09:51.888Z,-1.7
2018-02-18T02:10:58.812Z,-1.8
2018-02-18T02:12:06.025Z,-1.9
2018-02-18T02:13:12.964Z,-1.9
2018-02-18T02:14:20.176Z,-1.9
2018-02-18T02:15:27.615Z,-2
2018-02-18T02:16:35.429Z,-2
2018-02-18T02:17:42.635Z,-2
2018-02-18T02:18:49.847Z,-2
2018-02-18T02:19:56.499Z,-2.1
2018-02-18T02:21:03.705Z,-2.1
2018-02-18T02:22:10.374Z,-2.1
2018-02-18T02:23:17.582Z,-2.1
2018-02-18T02:24:24.784Z,-2.2
2018-02-18T02:25:31.993Z,-2.2
2018-02-18T02:26:39.200Z,-2.3
2018-02-18T02:27:45.852Z,-2.3
2018-02-18T02:28:52.780Z,-2.3
2018-02-18T02:29:59.714Z,-2.3
2018-02-18T02:31:06.919Z,-2.3
2018-02-18T02:32:14.128Z,-2.4
2018-02-18T02:33:21.068Z,-2.3
2018-02-18T02:34:28.276Z,-2.4
2018-02-18T02:35:34.938Z,-2.4
2018-02-18T02:36:42.139Z,-2.5
2018-02-18T02:37:49.501Z,-2.5
2018-02-18T02:38:56.708Z,-2.5
2018-02-18T02:40:03.912Z,-2.6
2018-02-18T02:41:10.860Z,-2.6
2018-02-18T02:42:17.794Z,-2.6
2018-02-18T02:43:24.995Z,-2.6
2018-02-18T02:44:31.644Z,-2.6
2018-02-18T02:45:38.578Z,-2.7
2018-02-18T02:46:45.504Z,-2.7
2018-02-18T02:47:52.705Z,-2.6
2018-02-18T02:48:58.818Z,-2.6
2018-02-18T02:50:06.023Z,-2.6
2018-02-18T02:51:13.233Z,-2.6
2018-02-18T02:52:20.437Z,-2.6
2018-02-18T02:53:27.641Z,-2.7
2018-02-18T02:54:34.857Z,-2.6
2018-02-18T02:55:42.053Z,-2.6
2018-02-18T02:56:49.260Z,-2.6
2018-02-18T02:57:56.473Z,-2.5
2018-02-18T02:59:03.408Z,-2.5
2018-02-18T03:00:10.620Z,-2.4
2018-02-18T03:01:17.820Z,-2.4
2018-02-18T03:02:25.025Z,-2.3
2018-02-18T03:03:32.231Z,-2.3
2018-02-18T03:04:39.158Z,-2.2
2018-02-18T03:05:46.360Z,-2.2
2018-02-18T03:06:53.321Z,-2.2
2018-02-18T03:08:00.602Z,-2.2
2018-02-18T03:09:07.862Z,-2.2
2018-02-18T03:10:15.065Z,-2.3
2018-02-18T03:11:22.004Z,-2.3
2018-02-18T03:12:29.210Z,-2.3
2018-02-18T03:13:36.413Z,-2.3
2018-02-18T03:14:43.348Z,-2.4
2018-02-18T03:15:50.270Z,-2.4
2018-02-18T03:16:57.473Z,-2.4
2018-02-18T03:18:04.679Z,-2.4
2018-02-18T03:19:11.607Z,-2.4
2018-02-18T03:20:18.849Z,-2.4
2018-02-18T03:21:26.054Z,-2.5
2018-02-18T03:22:33.257Z,-2.5
2018-02-18T03:23:40.465Z,-2.5
2018-02-18T03:24:47.673Z,-2.5
2018-02-18T03:25:54.882Z,-2.4
2018-02-18T03:27:02.089Z,-2.4
2018-02-18T03:28:09.025Z,-2.4
2018-02-18T03:29:16.230Z,-2.4
2018-02-18T03:30:22.887Z,-2.4
2018-02-18T03:31:29.552Z,-2.3
2018-02-18T03:32:36.473Z,-2.3
2018-02-18T03:33:43.678Z,-2.3
2018-02-18T03:34:50.893Z,-2.3
2018-02-18T03:35:58.097Z,-2.4
2018-02-18T03:37:05.303Z,-2.4
2018-02-18T03:38:13.277Z,-2.4
2018-02-18T03:39:20.488Z,-2.4
2018-02-18T03:40:27.710Z,-2.4
2018-02-18T03:41:34.921Z,-2.5
2018-02-18T03:42:42.127Z,-2.5
2018-02-18T03:43:49.064Z,-2.5
2018-02-18T03:44:55.993Z,-2.5
2018-02-18T03:46:03.201Z,-2.5
2018-02-18T03:47:10.408Z,-2.6
2018-02-18T03:48:17.647Z,-2.6
2018-02-18T03:49:24.851Z,-2.6
2018-02-18T03:50:32.062Z,-2.6
2018-02-18T03:51:39.258Z,-2.5
2018-02-18T03:52:46.472Z,-2.5
2018-02-18T03:53:53.675Z,-2.5
2018-02-18T03:55:00.886Z,-2.5
2018-02-18T03:56:08.101Z,-2.6
2018-02-18T03:57:15.306Z,-2.5
2018-02-18T03:58:22.246Z,-2.5
2018-02-18T03:59:29.191Z,-2.5
2018-02-18T04:00:35.848Z,-2.4
2018-02-18T04:01:42.809Z,-2.4
2018-02-18T04:02:49.736Z,-2.5
2018-02-18T04:03:56.668Z,-2.5
2018-02-18T04:05:03.599Z,-2.5
2018-02-18T04:06:10.521Z,-2.6
2018-02-18T04:07:17.455Z,-2.5
2018-02-18T04:08:24.660Z,-2.6
2018-02-18T04:09:31.584Z,-2.6
2018-02-18T04:10:38.509Z,-2.6
2018-02-18T04:11:45.716Z,-2.7
2018-02-18T04:12:52.924Z,-2.7
2018-02-18T04:14:00.126Z,-2.7
2018-02-18T04:15:07.057Z,-2.8
2018-02-18T04:16:14.263Z,-2.7
2018-02-18T04:17:21.194Z,-2.8
2018-02-18T04:18:28.406Z,-2.8
2018-02-18T04:19:35.864Z,-2.8
2018-02-18T04:20:42.524Z,-2.8
2018-02-18T04:21:49.882Z,-2.8
2018-02-18T04:22:56.825Z,-2.8
2018-02-18T04:24:03.473Z,-2.9
2018-02-18T04:25:10.149Z,-2.9
2018-02-18T04:26:17.080Z,-2.9
2018-02-18T04:27:24.296Z,-2.9
2018-02-18T04:28:31.505Z,-2.9
2018-02-18T04:29:38.716Z,-2.9
2018-02-18T04:30:46.207Z,-3
2018-02-18T04:31:53.630Z,-3
2018-02-18T04:33:00.562Z,-3.1
2018-02-18T04:34:07.486Z,-3.1
2018-02-18T04:35:14.138Z,-3.1
2018-02-18T04:36:21.348Z,-3.2
2018-02-18T04:37:28.315Z,-3.1
2018-02-18T04:38:35.244Z,-3.2
2018-02-18T04:39:42.446Z,-3.2
2018-02-18T04:40:49.100Z,-3.2
2018-02-18T04:41:56.033Z,-3.2
2018-02-18T04:43:03.239Z,-3.2
2018-02-18T04:44:10.193Z,-3.2
2018-02-18T04:45:17.393Z,-3.3
2018-02-18T04:46:24.572Z,-3.3
2018-02-18T04:47:31.504Z,-3.3
2018-02-18T04:48:38.708Z,-3.3
2018-02-18T04:49:45.911Z,-3.4
2018-02-18T04:50:53.117Z,-3.3
2018-02-18T04:52:00.050Z,-3.3
2018-02-18T04:53:06.984Z,-3.2
2018-02-18T04:54:14.190Z,-3.2
2018-02-18T04:55:21.123Z,-3.3
2018-02-18T04:56:27.779Z,-3.3
2018-02-18T04:57:34.433Z,-3.3
2018-02-18T04:58:41.633Z,-3.3
2018-02-18T04:59:48.837Z,-3.3
2018-02-18T05:00:56.044Z,-3.3
2018-02-18T05:02:02.971Z,-3.3
2018-02-18T05:03:10.196Z,-3.3
2018-02-18T05:04:17.626Z,-3.3
2018-02-18T05:05:24.834Z,-3.3
2018-02-18T05:06:32.045Z,-3.4
2018-02-18T05:07:39.243Z,-3.4
2018-02-18T05:08:46.450Z,-3.4
2018-02-18T05:09:53.668Z,-3.3
2018-02-18T05:11:00.865Z,-3.3
2018-02-18T05:12:07.788Z,-3.2
2018-02-18T05:13:15.012Z,-3.2
2018-02-18T05:14:21.673Z,-3.2
2018-02-18T05:15:28.688Z,-3.2
2018-02-18T05:16:35.900Z,-3.2
2018-02-18T05:17:43.344Z,-3.2
2018-02-18T05:18:50.549Z,-3.3
2018-02-18T05:19:57.763Z,-3.4
2018-02-18T05:21:04.960Z,-3.4
2018-02-18T05:22:12.165Z,-3.4
2018-02-18T05:23:19.090Z,-3.4
2018-02-18T05:24:26.017Z,-3.5
2018-02-18T05:25:33.223Z,-3.5
2018-02-18T05:26:40.435Z,-3.5
2018-02-18T05:27:47.637Z,-3.5
2018-02-18T05:28:54.569Z,-3.5
2018-02-18T05:30:01.496Z,-3.5
2018-02-18T05:31:08.418Z,-3.4
2018-02-18T05:32:15.348Z,-3.3
2018-02-18T05:33:22.554Z,-3.2
2018-02-18T05:34:29.758Z,-3.2
2018-02-18T05:35:36.964Z,-3.2
2018-02-18T05:36:44.174Z,-3.1
2018-02-18T05:37:51.389Z,-3
2018-02-18T05:38:58.824Z,-3
2018-02-18T05:40:06.028Z,-3
2018-02-18T05:41:13.235Z,-3.1
2018-02-18T05:42:20.448Z,-3.1
2018-02-18T05:43:27.666Z,-3.1
2018-02-18T05:44:34.869Z,-3.1
2018-02-18T05:45:42.075Z,-3.2
2018-02-18T05:46:49.006Z,-3.1
2018-02-18T05:47:55.930Z,-3.2
2018-02-18T05:49:03.137Z,-3.2
2018-02-18T05:50:10.348Z,-3.2
2018-02-18T05:51:17.549Z,-3.3
2018-02-18T05:52:24.754Z,-3.3
2018-02-18T05:53:31.955Z,-3.3
2018-02-18T05:54:39.160Z,-3.4
2018-02-18T05:55:45.817Z,-3.4
2018-02-18T05:56:52.742Z,-3.4
2018-02-18T05:57:59.940Z,-3.5
2018-02-18T05:59:07.150Z,-3.5
2018-02-18T06:00:14.371Z,-3.5
2018-02-18T06:01:21.572Z,-3.5
2018-02-18T06:02:28.737Z,-3.5
2018-02-18T06:03:35.666Z,-3.5
2018-02-18T06:04:42.889Z,-3.5
2018-02-18T06:05:49.542Z,-3.6
2018-02-18T06:06:56.750Z,-3.5
2018-02-18T06:08:03.707Z,-3.6
2018-02-18T06:09:10.939Z,-3.6
2018-02-18T06:10:18.141Z,-3.6
2018-02-18T06:11:25.075Z,-3.7
2018-02-18T06:12:32.278Z,-3.7
2018-02-18T06:13:39.484Z,-3.7
2018-02-18T06:14:46.689Z,-3.8
2018-02-18T06:15:53.618Z,-3.9
2018-02-18T06:17:00.821Z,-3.9
2018-02-18T06:18:08.028Z,-3.9
2018-02-18T06:19:15.230Z,-4
2018-02-18T06:20:23.420Z,-4
2018-02-18T06:21:30.622Z,-4.1
2018-02-18T06:22:37.837Z,-4.1
2018-02-18T06:23:46.544Z,-4.1
2018-02-18T06:24:53.187Z,-4.2
2018-02-18T06:25:59.851Z,-4.2
2018-02-18T06:27:06.780Z,-4.2
2018-02-18T06:28:13.704Z,-4.2
2018-02-18T06:29:20.911Z,-4.2
2018-02-18T06:30:28.112Z,-4.3
2018-02-18T06:31:35.038Z,-4.3
2018-02-18T06:32:42.253Z,-4.3
2018-02-18T06:33:49.180Z,-4.3
2018-02-18T06:34:56.640Z,-4.3
2018-02-18T06:36:03.307Z,-4.3
2018-02-18T06:37:10.500Z,-4.4
2018-02-18T06:38:17.714Z,-4.4
2018-02-18T06:39:24.913Z,-4.4
2018-02-18T06:40:32.852Z,-4.4
2018-02-18T06:41:39.781Z,-4.4
2018-02-18T06:42:46.710Z,-4.4
2018-02-18T06:43:53.919Z,-4.4
2018-02-18T06:45:01.060Z,-4.4
2018-02-18T06:46:07.712Z,-4.4
2018-02-18T06:47:14.918Z,-4.4
2018-02-18T06:48:22.122Z,-4.5
2018-02-18T06:49:29.055Z,-4.4
2018-02-18T06:50:35.977Z,-4.4
2018-02-18T06:51:43.184Z,-4.4
2018-02-18T06:52:50.387Z,-4.4
2018-02-18T06:53:57.319Z,-4.4
2018-02-18T06:55:04.521Z,-4.4
2018-02-18T06:56:11.453Z,-4.4
2018-02-18T06:57:18.378Z,-4.4
2018-02-18T06:58:25.622Z,-4.4
2018-02-18T06:59:32.857Z,-4.3
2018-02-18T07:00:39.784Z,-4.3
2018-02-18T07:01:46.752Z,-4.3
2018-02-18T07:02:53.961Z,-4.3
2018-02-18T07:04:01.169Z,-4.3
2018-02-18T07:05:08.374Z,-4.3
2018-02-18T07:06:15.302Z,-4.4
2018-02-18T07:07:22.526Z,-4.3
2018-02-18T07:08:29.447Z,-4.3
2018-02-18T07:09:36.653Z,-4.2
2018-02-18T07:10:43.595Z,-4.2
2018-02-18T07:11:50.798Z,-4.1
2018-02-18T07:12:58.002Z,-4
2018-02-18T07:14:04.932Z,-4
2018-02-18T07:15:11.845Z,-4
2018-02-18T07:16:19.057Z,-3.8
2018-02-18T07:17:26.263Z,-3.8
2018-02-18T07:18:33.485Z,-3.7
2018-02-18T07:19:40.415Z,-3.6
2018-02-18T07:20:47.367Z,-3.6
2018-02-18T07:21:54.301Z,-3.5
2018-02-18T07:23:01.266Z,-3.4
2018-02-18T07:24:08.532Z,-3.3
2018-02-18T07:25:15.486Z,-3.3
2018-02-18T07:26:22.688Z,-3.2
2018-02-18T07:27:29.894Z,-3.1
2018-02-18T07:28:36.549Z,-3.1
2018-02-18T07:29:43.763Z,-3
2018-02-18T07:30:50.968Z,-3
2018-02-18T07:31:57.900Z,-2.9
2018-02-18T07:33:05.117Z,-2.8
2018-02-18T07:34:12.327Z,-2.8
2018-02-18T07:35:18.985Z,-2.7
2018-02-18T07:36:25.913Z,-2.6
2018-02-18T07:37:33.116Z,-2.6
2018-02-18T07:38:40.055Z,-2.5
2018-02-18T07:39:46.981Z,-2.4
2018-02-18T07:40:53.946Z,-2.4
2018-02-18T07:42:00.896Z,-2.3
2018-02-18T07:43:08.106Z,-2.3
2018-02-18T07:44:15.331Z,-2.2
2018-02-18T07:45:22.534Z,-2.1
2018-02-18T07:46:29.758Z,-2
2018-02-18T07:47:36.966Z,-1.9
2018-02-18T07:48:44.165Z,-1.8
2018-02-18T07:49:51.373Z,-1.8
2018-02-18T07:50:58.302Z,-1.7
2018-02-18T07:52:05.506Z,-1.6
2018-02-18T07:53:12.717Z,-1.6
2018-02-18T07:54:19.642Z,-1.6
2018-02-18T07:55:26.859Z,-1.5
2018-02-18T07:56:34.067Z,-1.4
2018-02-18T07:57:40.987Z,-1.3
2018-02-18T07:58:47.917Z,-1.3
2018-02-18T07:59:55.124Z,-1.2
2018-02-18T08:01:02.331Z,-1.2
2018-02-18T08:02:09.543Z,-1.1
2018-02-18T08:03:17.041Z,-1
2018-02-18T08:04:24.241Z,-0.9
2018-02-18T08:05:31.192Z,-0.8
2018-02-18T08:06:38.501Z,-0.7
2018-02-18T08:07:45.802Z,-0.6
2018-02-18T08:08:53.012Z,-0.6
2018-02-18T08:09:59.939Z,-0.5
2018-02-18T08:11:06.872Z,-0.4
2018-02-18T08:12:14.071Z,-0.4
2018-02-18T08:13:21.280Z,-0.4
2018-02-18T08:14:28.488Z,-0.3
2018-02-18T08:15:35.693Z,-0.4
2018-02-18T08:16:42.628Z,-0.3
2018-02-18T08:17:49.685Z,-0.3
2018-02-18T08:18:56.933Z,-0.1
2018-02-18T08:20:04.192Z,0
2018-02-18T08:21:11.129Z,0.1
2018-02-18T08:22:18.339Z,0.2
2018-02-18T08:23:25.264Z,0.3
2018-02-18T08:24:33.641Z,0.4
2018-02-18T08:25:40.852Z,0.5
2018-02-18T08:26:47.783Z,0.6
2018-02-18T08:27:54.446Z,0.7
2018-02-18T08:29:01.377Z,0.8
2018-02-18T08:30:08.612Z,0.7
2018-02-18T08:31:15.539Z,0.8
2018-02-18T08:32:22.749Z,0.8
2018-02-18T08:33:29.971Z,0.9
2018-02-18T08:34:37.439Z,1
2018-02-18T08:35:44.408Z,1.2
2018-02-18T08:36:51.412Z,1.3
2018-02-18T08:37:58.061Z,1.4
2018-02-18T08:39:05.007Z,1.4
2018-02-18T08:40:12.212Z,1.4
2018-02-18T08:41:19.421Z,1.5
2018-02-18T08:42:26.630Z,1.6
2018-02-18T08:43:33.851Z,1.8
2018-02-18T08:44:41.084Z,1.9
2018-02-18T08:45:50.043Z,2
2018-02-18T08:46:57.246Z,2.2
2018-02-18T08:48:04.451Z,2.2
2018-02-18T08:49:11.666Z,2.2
2018-02-18T08:50:18.865Z,2.3
2018-02-18T08:51:26.095Z,2.3
2018-02-18T08:52:33.308Z,2.3
2018-02-18T08:53:40.516Z,2.4
2018-02-18T08:54:47.179Z,2.4
2018-02-18T08:55:54.389Z,2.5
2018-02-18T08:57:01.594Z,2.6
2018-02-18T08:58:08.806Z,2.8
2018-02-18T08:59:16.013Z,2.8
2018-02-18T09:00:23.256Z,2.7
2018-02-18T09:01:30.463Z,2.8
2018-02-18T09:02:37.918Z,2.7
2018-02-18T09:03:45.353Z,2.6
2018-02-18T09:04:52.293Z,2.6
2018-02-18T09:05:59.224Z,2.6
2018-02-18T09:07:05.893Z,2.7
2018-02-18T09:08:13.098Z,2.8
2018-02-18T09:09:20.315Z,2.8
2018-02-18T09:10:27.259Z,2.9
2018-02-18T09:11:34.189Z,3
2018-02-18T09:12:41.400Z,3
2018-02-18T09:13:48.605Z,3.2
2018-02-18T09:14:55.817Z,3.4
2018-02-18T09:16:03.032Z,3.4
2018-02-18T09:17:10.253Z,3.4
2018-02-18T09:18:17.185Z,3.4
2018-02-18T09:19:24.397Z,3.3
2018-02-18T09:20:31.326Z,3.5
2018-02-18T09:21:38.538Z,3.6
2018-02-18T09:23:00.396Z,3.5
2018-02-18T09:24:07.333Z,3.5
2018-02-18T09:25:13.992Z,3.6
2018-02-18T09:26:20.923Z,3.6
2018-02-18T09:27:28.130Z,3.6
2018-02-18T09:28:35.356Z,3.6
2018-02-18T09:29:42.565Z,3.6
2018-02-18T09:30:49.775Z,3.7
2018-02-18T09:31:56.981Z,3.8
2018-02-18T09:33:03.919Z,3.8
2018-02-18T09:34:11.126Z,3.9
2018-02-18T09:35:18.326Z,3.9
2018-02-18T09:36:25.257Z,4
2018-02-18T09:37:32.186Z,4.1
2018-02-18T09:38:39.397Z,4.1
2018-02-18T09:39:46.337Z,4.1
2018-02-18T09:40:53.799Z,4.2
2018-02-18T09:42:01.016Z,4.3
2018-02-18T09:43:10.146Z,4.4
2018-02-18T09:44:17.075Z,4.5
2018-02-18T09:45:23.739Z,4.5
2018-02-18T09:46:30.951Z,4.5
2018-02-18T09:47:38.161Z,4.5
2018-02-18T09:48:45.089Z,4.5
2018-02-18T09:49:52.023Z,4.6
2018-02-18T09:50:59.274Z,4.6
2018-02-18T09:52:06.482Z,4.6
2018-02-18T09:53:13.417Z,4.7
2018-02-18T09:54:20.626Z,4.5
2018-02-18T09:55:27.828Z,4.4
2018-02-18T09:56:35.034Z,4.3
2018-02-18T09:57:41.662Z,4.4
2018-02-18T09:58:48.598Z,4.5
2018-02-18T09:59:55.821Z,4.7
2018-02-18T10:01:03.031Z,4.6
2018-02-18T10:02:10.255Z,4.6
2018-02-18T10:03:17.465Z,4.5
2018-02-18T10:04:24.420Z,4.5
2018-02-18T10:05:31.636Z,4.5
2018-02-18T10:06:38.844Z,4.4
2018-02-18T10:07:46.215Z,4.4
2018-02-18T10:08:53.152Z,4.4
2018-02-18T10:10:00.081Z,4.6
2018-02-18T10:11:07.011Z,4.6
2018-02-18T10:12:13.959Z,4.5
2018-02-18T10:13:21.166Z,4.5
2018-02-18T10:14:28.450Z,4.5
2018-02-18T10:15:35.074Z,4.5
2018-02-18T10:16:42.288Z,4.5
2018-02-18T10:17:49.498Z,4.7
2018-02-18T10:18:56.718Z,4.9
2018-02-18T10:20:03.650Z,5.1
2018-02-18T10:21:10.856Z,5.2
2018-02-18T10:22:17.790Z,5.1
2018-02-18T10:23:25.035Z,5
2018-02-18T10:24:32.246Z,5
2018-02-18T10:25:38.924Z,5
2018-02-18T10:26:46.136Z,5.2
2018-02-18T10:27:53.061Z,5.3
2018-02-18T10:28:59.721Z,5.2
2018-02-18T10:30:06.933Z,5.1
2018-02-18T10:31:13.874Z,5
2018-02-18T10:32:21.089Z,4.9
2018-02-18T10:33:28.296Z,4.9
2018-02-18T10:34:35.544Z,5
2018-02-18T10:35:42.482Z,5.1
2018-02-18T10:36:49.421Z,5.2
2018-02-18T10:37:56.359Z,5.4
2018-02-18T10:39:03.297Z,5.4
2018-02-18T10:40:10.511Z,5.4
2018-02-18T10:41:17.175Z,5.5
2018-02-18T10:42:24.386Z,5.4
2018-02-18T10:43:31.605Z,5.4
2018-02-18T10:44:38.548Z,5.4
2018-02-18T10:45:46.182Z,5.3
2018-02-18T10:46:52.864Z,5.4
2018-02-18T10:48:00.141Z,5.5
2018-02-18T10:49:07.394Z,5.5
2018-02-18T10:50:14.634Z,5.4
2018-02-18T10:51:21.295Z,5.2
2018-02-18T10:52:28.508Z,5.1
2018-02-18T10:53:35.743Z,5.1
2018-02-18T10:54:42.952Z,5.3
2018-02-18T10:55:49.911Z,5.3
2018-02-18T10:56:57.128Z,5.3
2018-02-18T10:58:04.554Z,5.4
2018-02-18T10:59:11.212Z,5.5
2018-02-18T11:00:18.438Z,5.7
2018-02-18T11:01:25.651Z,5.6
2018-02-18T11:02:32.862Z,5.5
2018-02-18T11:03:40.072Z,5.4
2018-02-18T11:04:47.287Z,5.3
2018-02-18T11:05:54.228Z,5.4
2018-02-18T11:07:01.437Z,5.4
2018-02-18T11:08:08.390Z,5.5
2018-02-18T11:09:15.329Z,5.6
2018-02-18T11:10:22.262Z,5.9
2018-02-18T11:11:29.503Z,5.9
2018-02-18T11:12:36.454Z,5.9
2018-02-18T11:13:43.386Z,5.8
2018-02-18T11:14:50.046Z,5.8
2018-02-18T11:15:57.259Z,5.8
2018-02-18T11:17:04.503Z,5.8
2018-02-18T11:18:11.725Z,5.8
2018-02-18T11:19:18.661Z,5.9
2018-02-18T11:20:25.598Z,5.8
2018-02-18T11:21:47.464Z,5.7
2018-02-18T11:22:54.680Z,5.7
2018-02-18T11:24:02.293Z,5.5
2018-02-18T11:25:09.502Z,5.2
2018-02-18T11:26:16.716Z,5.4
2018-02-18T11:27:23.382Z,5.6
2018-02-18T11:28:30.733Z,6
2018-02-18T11:29:38.350Z,6
2018-02-18T11:30:45.282Z,6.1
2018-02-18T11:31:52.484Z,6.2
2018-02-18T11:32:59.417Z,6.3
2018-02-18T11:34:06.352Z,6.4
2018-02-18T11:35:13.564Z,6.4
2018-02-18T11:36:20.777Z,6.3
2018-02-18T11:37:27.998Z,6.1
2018-02-18T11:38:35.451Z,6
2018-02-18T11:39:42.667Z,6
2018-02-18T11:40:49.878Z,6.1
2018-02-18T11:41:57.102Z,6.3
2018-02-18T11:43:04.316Z,6.4
2018-02-18T11:44:11.780Z,6.2
2018-02-18T11:45:18.713Z,6.1
2018-02-18T11:46:25.927Z,6
2018-02-18T11:47:33.142Z,5.8
2018-02-18T11:48:40.076Z,5.8
2018-02-18T11:49:47.279Z,5.8
2018-02-18T11:50:54.495Z,5.9
2018-02-18T11:52:01.708Z,5.8
2018-02-18T11:53:08.641Z,5.8
2018-02-18T11:54:15.853Z,5.9
2018-02-18T11:55:23.062Z,5.8
2018-02-18T11:56:30.283Z,5.6
2018-02-18T11:57:37.533Z,5.6
2018-02-18T11:58:45.455Z,6
2018-02-18T11:59:52.667Z,6.1
2018-02-18T12:00:59.881Z,6.2
2018-02-18T12:02:07.096Z,5.9
2018-02-18T12:03:14.028Z,5.7
2018-02-18T12:04:20.961Z,5.7
2018-02-18T12:05:27.898Z,5.8
2018-02-18T12:06:35.114Z,5.4
2018-02-18T12:07:42.547Z,5
2018-02-18T12:08:49.765Z,4.9
2018-02-18T12:09:56.697Z,4.9
2018-02-18T12:11:03.907Z,4.9
2018-02-18T12:12:10.843Z,4.9
2018-02-18T12:13:18.063Z,5
2018-02-18T12:14:25.275Z,5.1
2018-02-18T12:15:32.501Z,5.1
2018-02-18T12:16:39.715Z,5.1
2018-02-18T12:17:46.650Z,5.2
2018-02-18T12:18:53.871Z,5.5
2018-02-18T12:20:01.072Z,5.6
2018-02-18T12:21:08.021Z,5.6
2018-02-18T12:22:14.990Z,5.5
2018-02-18T12:23:22.205Z,5.3
2018-02-18T12:24:29.417Z,5.3
2018-02-18T12:25:36.624Z,5.5
2018-02-18T12:26:43.838Z,5.5
2018-02-18T12:27:50.781Z,5.6
2018-02-18T12:28:57.722Z,5.6
2018-02-18T12:30:04.935Z,5.7
2018-02-18T12:31:11.605Z,5.7
2018-02-18T12:32:18.820Z,5.7
2018-02-18T12:33:25.481Z,5.6
2018-02-18T12:34:32.694Z,5.5
2018-02-18T12:35:39.626Z,5.5
2018-02-18T12:36:46.565Z,5.5
2018-02-18T12:37:53.507Z,5.4
2018-02-18T12:39:00.767Z,5.3
2018-02-18T12:40:07.706Z,5.3
2018-02-18T12:41:14.641Z,5.2
2018-02-18T12:42:21.849Z,5.3
2018-02-18T12:43:29.845Z,5.3
2018-02-18T12:44:37.310Z,5.3
2018-02-18T12:45:44.080Z,5.3
2018-02-18T12:46:50.747Z,5.2
2018-02-18T12:47:57.962Z,5.2
2018-02-18T12:49:04.919Z,5.2
2018-02-18T12:50:12.130Z,5.3
2018-02-18T12:51:19.066Z,5.3
2018-02-18T12:52:26.274Z,5.3
2018-02-18T12:53:33.490Z,5.4
2018-02-18T12:54:40.762Z,5.6
2018-02-18T12:55:48.482Z,6
2018-02-18T12:56:55.695Z,6.3
2018-02-18T12:58:02.909Z,6.5
2018-02-18T12:59:09.859Z,6.6
2018-02-18T13:00:16.828Z,6.9
2018-02-18T13:01:23.769Z,7
2018-02-18T13:02:30.706Z,7
2018-02-18T13:03:52.570Z,7
2018-02-18T13:04:59.784Z,7.2
2018-02-18T13:06:06.722Z,7.5
2018-02-18T13:07:13.940Z,7.5
2018-02-18T13:08:21.156Z,7.6
2018-02-18T13:09:28.370Z,7.5
2018-02-18T13:10:35.302Z,7.3
2018-02-18T13:11:42.518Z,7.5
2018-02-18T13:12:49.450Z,7.4
2018-02-18T13:13:56.115Z,7.4
2018-02-18T13:15:03.067Z,7.5
2018-02-18T13:16:10.292Z,7.4
2018-02-18T13:17:17.508Z,7.2
2018-02-18T13:18:24.453Z,7.1
2018-02-18T13:19:31.669Z,7.3
2018-02-18T13:20:38.881Z,7.5
2018-02-18T13:21:46.110Z,7.7
2018-02-18T13:22:53.044Z,8
2018-02-18T13:24:00.021Z,8.3
2018-02-18T13:25:07.324Z,8.2
2018-02-18T13:26:13.983Z,8
2018-02-18T13:27:21.890Z,7.8
2018-02-18T13:28:28.827Z,7.5
2018-02-18T13:29:35.766Z,7.4
2018-02-18T13:30:42.704Z,7
2018-02-18T13:31:49.646Z,6.9
2018-02-18T13:32:56.879Z,6.9
2018-02-18T13:34:03.882Z,6.7
2018-02-18T13:35:11.092Z,6.5
2018-02-18T13:36:18.307Z,6.6
2018-02-18T13:37:25.523Z,6.7
2018-02-18T13:38:32.736Z,6.9
2018-02-18T13:39:39.404Z,6.9
2018-02-18T13:40:46.343Z,7
2018-02-18T13:41:53.484Z,6.8
2018-02-18T13:43:00.478Z,6.8
2018-02-18T13:44:07.418Z,6.6
2018-02-18T13:45:14.896Z,6.6
2018-02-18T13:46:21.557Z,6.6
2018-02-18T13:47:28.502Z,6.6
2018-02-18T13:48:35.722Z,6.6
2018-02-18T13:49:42.933Z,6.5
2018-02-18T13:50:49.867Z,6.6
2018-02-18T13:51:57.078Z,6.3
2018-02-18T13:53:04.309Z,6.3
2018-02-18T13:54:11.521Z,6.2
2018-02-18T13:55:18.746Z,6.2
2018-02-18T13:56:26.215Z,6.1
2018-02-18T13:57:33.160Z,6.1
2018-02-18T13:58:40.373Z,6
2018-02-18T13:59:47.593Z,5.9
2018-02-18T14:00:54.248Z,5.9
2018-02-18T14:02:01.463Z,5.8
2018-02-18T14:03:08.674Z,5.8
2018-02-18T14:04:15.348Z,5.7
2018-02-18T14:05:22.290Z,5.6
2018-02-18T14:06:29.519Z,5.5
2018-02-18T14:07:36.730Z,5.5
2018-02-18T14:08:43.946Z,5.4
2018-02-18T14:09:51.158Z,5.3
2018-02-18T14:10:58.100Z,5.3
2018-02-18T14:12:05.316Z,5.2
2018-02-18T14:13:12.532Z,5.2
2018-02-18T14:14:19.750Z,5.2
2018-02-18T14:15:26.703Z,5.2
2018-02-18T14:16:33.925Z,5.2
2018-02-18T14:17:40.852Z,5.2
2018-02-18T14:18:48.065Z,5.1
2018-02-18T14:19:55.001Z,5
2018-02-18T14:21:01.935Z,4.9
2018-02-18T14:22:08.880Z,4.8
2018-02-18T14:23:16.096Z,4.8
2018-02-18T14:24:23.306Z,4.7
2018-02-18T14:25:30.531Z,4.7
2018-02-18T14:26:37.469Z,4.5
2018-02-18T14:27:44.421Z,4.5
2018-02-18T14:28:51.362Z,4.6
2018-02-18T14:29:58.572Z,4.6
2018-02-18T14:31:05.786Z,4.6
2018-02-18T14:32:12.994Z,4.6
2018-02-18T14:33:19.932Z,4.6
2018-02-18T14:34:27.147Z,4.6
2018-02-18T14:35:34.084Z,4.6
2018-02-18T14:36:41.381Z,4.7
2018-02-18T14:37:48.621Z,4.7
2018-02-18T14:38:55.557Z,4.7
2018-02-18T14:40:02.767Z,4.7
2018-02-18T14:41:09.695Z,4.7
2018-02-18T14:42:16.631Z,4.9
2018-02-18T14:43:23.568Z,5.1
2018-02-18T14:44:30.781Z,5.4
2018-02-18T14:45:37.721Z,5.7
2018-02-18T14:46:45.020Z,6.1
2018-02-18T14:47:52.234Z,6.4
2018-02-18T14:48:59.173Z,6.6
2018-02-18T14:50:06.384Z,6.8
2018-02-18T14:51:13.597Z,6.9
2018-02-18T14:52:20.811Z,6.6
2018-02-18T14:53:26.933Z,6.3
2018-02-18T14:54:34.143Z,6.3
2018-02-18T14:55:41.357Z,6.4
2018-02-18T14:56:48.566Z,6.4
2018-02-18T14:57:55.780Z,6.4
2018-02-18T14:59:02.718Z,6.6
2018-02-18T15:00:09.931Z,6.7
2018-02-18T15:01:16.862Z,6.8
2018-02-18T15:02:23.800Z,6.8
2018-02-18T15:03:30.733Z,6.8
2018-02-18T15:04:37.671Z,6.8
2018-02-18T15:05:44.055Z,6.8
2018-02-18T15:06:51.268Z,6.9
2018-02-18T15:07:58.509Z,7
2018-02-18T15:09:05.727Z,7.1
2018-02-18T15:10:12.414Z,7
2018-02-18T15:11:19.628Z,7
2018-02-18T15:12:26.565Z,6.9